Time;durP1;ratioP1;P1;durP2;ratioP2;P2;SDS_P1;SDS_P2;PMS_P1;PMS_P2;Temp;Humidity;BMP_temperature;BMP_pressure;BME280_temperature;BME280_humidity;BME280_pressure;Samples;Min_cycle;Max_cycle;Signal;HPM_P1;HPM_P2
2022/12/02 00:01:37;;;;;;;38.83;14.60;;;1.60;99.90;;;;;;4976504;28;20203;-91
2022/12/02 00:04:24;;;;;;;44.70;18.80;;;1.50;99.90;;;;;;4958810;28;20949;-91
2022/12/02 00:06:51;;;;;;;34.03;14.20;;;1.50;99.90;;;;;;4976186;28;20246;-89
2022/12/02 00:09:27;;;;;;;38.50;14.77;;;1.40;99.90;;;;;;4975911;28;20420;-90
2022/12/02 00:11:53;;;;;;;44.53;15.73;;;1.50;99.90;;;;;;4958157;28;20455;-88
2022/12/02 00:14:24;;;;;;;34.17;14.90;;;1.50;99.90;;;;;;4958320;28;20522;-87
2022/12/02 00:16:51;;;;;;;41.10;14.13;;;1.60;99.90;;;;;;4958223;28;20170;-88
2022/12/02 00:19:16;;;;;;;34.87;15.37;;;1.60;99.90;;;;;;4974926;28;21032;-85
2022/12/02 00:21:42;;;;;;;35.60;15.87;;;1.50;99.90;;;;;;4975412;28;20433;-82
2022/12/02 00:24:08;;;;;;;40.50;17.50;;;1.50;99.90;;;;;;4975446;28;20230;-89
2022/12/02 00:26:34;;;;;;;38.57;16.90;;;1.60;99.90;;;;;;4974972;28;20256;-88
2022/12/02 00:29:00;;;;;;;35.47;14.97;;;1.60;99.90;;;;;;4975491;28;20243;-89
2022/12/02 00:31:35;;;;;;;40.07;16.30;;;1.50;99.90;;;;;;4957796;28;20439;-85
2022/12/02 00:34:04;;;;;;;30.87;14.37;;;1.50;99.90;;;;;;4974940;28;20574;-82
2022/12/02 00:36:30;;;;;;;40.20;17.10;;;1.50;99.90;;;;;;4975062;28;20417;-87
2022/12/02 00:38:56;;;;;;;30.70;15.73;;;1.50;99.90;;;;;;4975516;28;20824;-89
2022/12/02 00:41:22;;;;;;;35.23;14.00;;;1.50;99.90;;;;;;4978183;28;20412;-89
2022/12/02 00:46:33;;;;;;;41.63;17.57;;;1.40;99.90;;;;;;4981478;28;20466;-85
2022/12/02 00:49:13;;;;;;;37.70;16.60;;;1.50;99.90;;;;;;4981383;28;20495;-88
2022/12/02 00:51:40;;;;;;;40.07;14.57;;;1.50;99.90;;;;;;4964241;28;20461;-82
2022/12/02 00:54:06;;;;;;;37.67;16.50;;;1.50;99.90;;;;;;4982018;28;20828;-86
2022/12/02 00:56:32;;;;;;;42.10;16.13;;;1.50;99.90;;;;;;4981525;28;20419;-88
2022/12/02 00:58:58;;;;;;;32.97;17.33;;;1.50;99.90;;;;;;4981392;28;20455;-89
2022/12/02 01:01:24;;;;;;;36.17;15.70;;;1.50;99.90;;;;;;4981466;28;20454;-91
2022/12/02 01:03:50;;;;;;;38.03;18.70;;;1.40;99.90;;;;;;4981202;28;20176;-88
2022/12/02 01:06:16;;;;;;;36.27;16.00;;;1.50;99.90;;;;;;4963939;28;20489;-87
2022/12/02 01:08:42;;;;;;;48.57;19.83;;;1.50;99.90;;;;;;4981221;28;20508;-87
2022/12/02 01:11:07;;;;;;;38.63;18.50;;;1.40;99.90;;;;;;4963772;28;20932;-89
2022/12/02 01:13:33;;;;;;;48.27;19.17;;;1.40;99.90;;;;;;4981242;28;20226;-90
2022/12/02 01:15:59;;;;;;;35.00;16.60;;;1.50;99.90;;;;;;4963834;28;20174;-89
2022/12/02 01:18:24;;;;;;;37.97;16.83;;;1.40;99.90;;;;;;4980925;28;20433;-89
2022/12/02 01:20:50;;;;;;;40.33;18.43;;;1.50;99.90;;;;;;4981191;28;20172;-90
2022/12/02 01:23:28;;;;;;;43.07;18.57;;;1.60;99.90;;;;;;4981233;28;20172;-91
2022/12/02 01:25:53;;;;;;;44.40;16.33;;;1.60;99.90;;;;;;4981224;28;20408;-89
2022/12/02 01:28:19;;;;;;;44.40;18.70;;;1.60;99.90;;;;;;4981212;28;20422;-88
2022/12/02 01:30:45;;;;;;;38.80;17.40;;;1.60;99.90;;;;;;4980985;28;20173;-82
2022/12/02 01:33:11;;;;;;;47.90;15.83;;;1.50;99.90;;;;;;4980879;28;20557;-88
2022/12/02 01:35:36;;;;;;;53.87;21.57;;;1.50;99.90;;;;;;4980984;28;20411;-89
2022/12/02 01:38:01;;;;;;;42.27;17.47;;;1.60;99.90;;;;;;4981048;28;20179;-89
2022/12/02 01:40:28;;;;;;;56.23;19.77;;;1.50;99.90;;;;;;4981207;28;20169;-88
2022/12/02 01:42:55;;;;;;;49.37;19.93;;;1.50;99.90;;;;;;4981030;28;20259;-89
2022/12/02 01:45:20;;;;;;;52.30;21.40;;;1.60;99.90;;;;;;4981112;28;20494;-90
2022/12/02 01:47:46;;;;;;;50.10;18.80;;;1.50;99.90;;;;;;4980867;28;20952;-90
2022/12/02 01:50:14;;;;;;;45.30;20.30;;;1.60;99.90;;;;;;4981009;28;20180;-89
2022/12/02 01:52:40;;;;;;;42.10;19.53;;;1.60;99.90;;;;;;4962390;28;20244;-91
2022/12/02 01:55:10;;;;;;;40.33;16.13;;;1.60;99.90;;;;;;4978197;28;20494;-91
2022/12/02 01:57:36;;;;;;;51.13;19.67;;;1.60;99.90;;;;;;4977884;28;20187;-91
2022/12/02 02:00:03;;;;;;;41.90;19.13;;;1.60;99.90;;;;;;4977885;28;20421;-85
2022/12/02 02:02:31;;;;;;;46.43;19.03;;;1.60;99.90;;;;;;4977900;28;20168;-91
2022/12/02 02:05:01;;;;;;;42.60;17.60;;;1.60;99.90;;;;;;4978345;28;20412;-89
2022/12/02 02:07:27;;;;;;;42.87;16.43;;;1.60;99.90;;;;;;4978577;28;20550;-91
2022/12/02 02:09:53;;;;;;;38.67;16.67;;;1.50;99.90;;;;;;4978372;28;20421;-82
2022/12/02 02:12:19;;;;;;;41.63;17.80;;;1.50;99.90;;;;;;4978203;28;20447;-90
2022/12/02 02:14:45;;;;;;;47.77;21.50;;;1.50;99.90;;;;;;4977936;28;20436;-90
2022/12/02 02:17:13;;;;;;;50.30;21.80;;;1.50;99.90;;;;;;4977441;28;20183;-89
2022/12/02 02:19:39;;;;;;;44.27;19.80;;;1.50;99.90;;;;;;4977678;28;20446;-90
2022/12/02 02:22:12;;;;;;;43.40;19.13;;;1.50;99.90;;;;;;4977497;28;20920;-90
2022/12/02 02:24:37;;;;;;;32.90;14.90;;;1.50;99.90;;;;;;4960638;28;20168;-88
2022/12/02 02:27:06;;;;;;;36.70;15.80;;;1.60;99.90;;;;;;4977585;28;20424;-88
2022/12/02 02:29:32;;;;;;;38.40;17.00;;;1.60;99.90;;;;;;4977676;28;20195;-83
2022/12/02 02:31:58;;;;;;;35.90;15.77;;;1.50;99.90;;;;;;4977342;28;20538;-89
2022/12/02 02:34:24;;;;;;;38.37;18.10;;;1.50;99.90;;;;;;4977692;28;20412;-91
2022/12/02 02:36:49;;;;;;;37.07;16.73;;;1.50;99.90;;;;;;4960648;28;20499;-90
2022/12/02 02:39:15;;;;;;;38.37;18.83;;;1.50;99.90;;;;;;4977299;28;20188;-90
2022/12/02 02:41:41;;;;;;;34.07;15.13;;;1.50;99.90;;;;;;4977499;28;20180;-89
2022/12/02 02:44:06;;;;;;;44.27;18.67;;;1.50;99.90;;;;;;4977222;28;20199;-90
2022/12/02 02:46:32;;;;;;;36.57;16.30;;;1.50;99.90;;;;;;4977462;28;20248;-90
2022/12/02 02:48:57;;;;;;;35.77;17.97;;;1.50;99.90;;;;;;4977266;28;20579;-91
2022/12/02 02:51:23;;;;;;;37.47;17.30;;;1.50;99.90;;;;;;4977210;28;20219;-90
2022/12/02 02:53:49;;;;;;;38.47;17.63;;;1.50;99.90;;;;;;4977074;28;20688;-83
2022/12/02 02:56:15;;;;;;;42.27;19.20;;;1.50;99.90;;;;;;4977513;28;20208;-90
2022/12/02 02:58:41;;;;;;;33.30;18.50;;;1.50;99.90;;;;;;4977262;28;20465;-89
2022/12/02 03:01:35;;;;;;;41.50;18.17;;;1.40;99.90;;;;;;4977513;28;20520;-90
2022/12/02 03:04:10;;;;;;;35.90;17.93;;;1.40;99.90;;;;;;4955703;28;20249;-87
2022/12/02 03:06:38;;;;;;;35.63;16.50;;;1.40;99.90;;;;;;4976507;28;20475;-88
2022/12/02 03:09:06;;;;;;;41.83;19.50;;;1.40;99.90;;;;;;4982799;28;20435;-93
2022/12/02 03:11:32;;;;;;;35.67;16.60;;;1.30;99.90;;;;;;4977745;28;20426;-95
2022/12/02 03:13:59;;;;;;;35.70;17.50;;;1.40;99.90;;;;;;4977697;28;20521;-85
2022/12/02 03:16:25;;;;;;;37.00;19.53;;;1.40;99.90;;;;;;4977582;28;20428;-92
2022/12/02 03:18:52;;;;;;;31.10;16.17;;;1.40;99.90;;;;;;4976779;28;20508;-86
2022/12/02 03:21:19;;;;;;;38.40;17.20;;;1.40;99.90;;;;;;4959919;28;20439;-94
2022/12/02 03:23:46;;;;;;;36.10;18.90;;;1.40;99.90;;;;;;4960042;28;20468;-82
2022/12/02 03:26:13;;;;;;;41.20;18.40;;;1.40;99.90;;;;;;4960113;28;20419;-94
2022/12/02 03:28:40;;;;;;;31.57;15.73;;;1.40;99.90;;;;;;4977184;28;20424;-95
2022/12/02 03:31:06;;;;;;;36.10;17.77;;;1.40;99.90;;;;;;4978157;28;20432;-95
2022/12/02 03:33:32;;;;;;;41.90;18.17;;;1.40;99.90;;;;;;4960462;28;20480;-91
2022/12/02 03:35:58;;;;;;;34.40;17.27;;;1.30;99.90;;;;;;4977507;28;20412;-96
2022/12/02 03:38:24;;;;;;;31.30;17.63;;;1.30;99.90;;;;;;4978392;28;20430;-87
2022/12/02 03:40:53;;;;;;;31.60;16.87;;;1.30;99.90;;;;;;4960031;28;20182;-84
2022/12/02 03:43:21;;;;;;;27.50;13.23;;;1.30;99.90;;;;;;4978429;28;20432;-95
2022/12/02 03:45:47;;;;;;;32.07;15.90;;;1.30;99.90;;;;;;4960779;28;20427;-95
2022/12/02 03:48:12;;;;;;;29.33;15.90;;;1.30;99.90;;;;;;4961875;28;20424;-93
2022/12/02 03:50:39;;;;;;;34.37;17.23;;;1.40;99.90;;;;;;4977659;28;20176;-91
2022/12/02 03:53:05;;;;;;;42.47;18.67;;;1.40;99.90;;;;;;4977486;28;20241;-90
2022/12/02 03:55:30;;;;;;;36.13;17.53;;;1.30;99.90;;;;;;4963280;28;20855;-90
2022/12/02 03:58:03;;;;;;;34.30;18.63;;;1.40;99.90;;;;;;4967573;28;20185;-83
2022/12/02 04:00:28;;;;;;;33.03;15.93;;;1.30;99.90;;;;;;4983487;28;20169;-88
2022/12/02 04:02:54;;;;;;;32.57;15.00;;;1.40;99.90;;;;;;4990087;28;20443;-94
2022/12/02 04:05:19;;;;;;;37.57;18.00;;;1.30;99.90;;;;;;4995194;23;20172;-83
2022/12/02 04:07:45;;;;;;;26.70;15.33;;;1.30;99.90;;;;;;4997665;28;20264;-96
2022/12/02 04:10:11;;;;;;;35.70;17.70;;;1.30;99.90;;;;;;4996138;28;20167;-96
2022/12/02 04:12:36;;;;;;;29.53;15.90;;;1.20;99.90;;;;;;4979019;28;20668;-94
2022/12/02 04:15:02;;;;;;;34.43;16.10;;;1.40;99.90;;;;;;4996490;28;20966;-92
2022/12/02 04:17:27;;;;;;;30.90;15.47;;;1.30;99.90;;;;;;4997543;28;20176;-95
2022/12/02 04:19:54;;;;;;;33.20;16.47;;;1.30;99.90;;;;;;4996883;28;20262;-95
2022/12/02 04:22:22;;;;;;;31.90;17.20;;;1.30;99.90;;;;;;4996381;28;20175;-96
2022/12/02 04:24:48;;;;;;;29.77;16.20;;;1.30;99.90;;;;;;4985971;28;20430;-85
2022/12/02 04:27:13;;;;;;;33.53;18.10;;;1.30;99.90;;;;;;4995782;28;20419;-84
2022/12/02 04:29:39;;;;;;;33.60;17.53;;;1.30;99.90;;;;;;4999797;28;20173;-85
2022/12/02 04:32:04;;;;;;;32.70;16.43;;;1.30;99.90;;;;;;5005939;28;20231;-83
2022/12/02 04:34:50;;;;;;;29.23;17.03;;;1.30;99.90;;;;;;5027885;23;20230;-84
2022/12/02 04:37:15;;;;;;;34.73;18.50;;;1.30;99.90;;;;;;4982587;28;20418;-93
2022/12/02 04:39:41;;;;;;;32.00;16.80;;;1.30;99.90;;;;;;5000882;28;20218;-82
2022/12/02 04:42:06;;;;;;;33.60;15.47;;;1.30;99.90;;;;;;5001184;28;20179;-83
2022/12/02 04:44:31;;;;;;;27.90;17.07;;;1.30;99.90;;;;;;4983616;28;20597;-89
2022/12/02 04:46:57;;;;;;;35.93;16.80;;;1.30;99.90;;;;;;5000203;28;20172;-94
2022/12/02 04:49:22;;;;;;;33.13;14.53;;;1.30;99.90;;;;;;4996427;28;20175;-94
2022/12/02 04:51:48;;;;;;;29.27;16.57;;;1.40;99.90;;;;;;4993487;28;20188;-83
2022/12/02 04:54:13;;;;;;;37.10;17.10;;;1.40;99.90;;;;;;4995345;28;20179;-94
2022/12/02 04:56:39;;;;;;;28.27;17.10;;;1.40;99.90;;;;;;4994634;28;20254;-84
2022/12/02 04:59:04;;;;;;;31.60;16.87;;;1.40;99.90;;;;;;4994467;28;20172;-84
2022/12/02 05:01:30;;;;;;;27.77;13.87;;;1.40;99.90;;;;;;4993699;28;20172;-84
2022/12/02 05:03:55;;;;;;;27.53;15.73;;;1.40;99.90;;;;;;4993955;28;20702;-84
2022/12/02 05:06:21;;;;;;;27.90;16.13;;;1.40;99.90;;;;;;4993621;28;20184;-84
2022/12/02 05:08:46;;;;;;;27.80;14.90;;;1.40;99.90;;;;;;4993736;28;20204;-85
2022/12/02 05:11:12;;;;;;;26.87;14.63;;;1.50;99.90;;;;;;4993568;28;20182;-85
2022/12/02 05:13:37;;;;;;;33.70;17.57;;;1.50;99.90;;;;;;4993472;28;20691;-82
2022/12/02 05:16:06;;;;;;;31.50;15.73;;;1.40;99.90;;;;;;4993818;28;20215;-83
2022/12/02 05:18:31;;;;;;;41.33;17.13;;;1.40;99.90;;;;;;4993391;28;20187;-86
2022/12/02 05:20:57;;;;;;;32.57;15.20;;;1.40;99.90;;;;;;4993738;28;20414;-84
2022/12/02 05:23:22;;;;;;;35.60;16.17;;;1.40;99.90;;;;;;4994337;28;20683;-85
2022/12/02 05:25:48;;;;;;;33.40;15.90;;;1.30;99.90;;;;;;4994045;28;20184;-90
2022/12/02 05:28:14;;;;;;;34.07;17.00;;;1.30;99.90;;;;;;4996587;28;20660;-91
2022/12/02 05:30:39;;;;;;;30.50;15.87;;;1.30;99.90;;;;;;4996408;28;20175;-84
2022/12/02 05:33:04;;;;;;;34.50;16.60;;;1.40;99.90;;;;;;4997569;28;20551;-84
2022/12/02 05:35:30;;;;;;;28.93;15.47;;;1.30;99.90;;;;;;4997157;28;20296;-84
2022/12/02 05:37:55;;;;;;;28.37;15.00;;;1.40;99.90;;;;;;4999300;28;20178;-88
2022/12/02 05:40:21;;;;;;;30.97;15.50;;;1.30;99.90;;;;;;4997704;28;20172;-83
2022/12/02 05:42:46;;;;;;;21.77;13.10;;;1.40;99.90;;;;;;4980412;28;20183;-86
2022/12/02 05:45:29;;;;;;;32.40;15.73;;;1.30;99.90;;;;;;5000648;28;20171;-83
2022/12/02 05:47:54;;;;;;;27.90;14.20;;;1.40;99.90;;;;;;4997711;28;20207;-82
2022/12/02 05:50:23;;;;;;;27.90;13.67;;;1.30;99.90;;;;;;4997583;28;20430;-82
2022/12/02 05:52:48;;;;;;;28.20;14.60;;;1.30;99.90;;;;;;4997228;28;20210;-82
2022/12/02 05:55:24;;;;;;;33.93;15.37;;;1.40;99.90;;;;;;4997142;28;20403;-82
2022/12/02 05:57:50;;;;;;;26.30;12.90;;;1.40;99.90;;;;;;4997187;28;20258;-83
2022/12/02 06:00:20;;;;;;;26.77;12.93;;;1.40;99.90;;;;;;4997190;28;20931;-82
2022/12/02 06:02:52;;;;;;;23.33;13.60;;;1.40;99.90;;;;;;4996426;28;20177;-82
2022/12/02 06:05:23;;;;;;;30.37;15.37;;;1.40;99.90;;;;;;4997448;28;20439;-90
2022/12/02 06:07:53;;;;;;;28.50;15.30;;;1.30;99.90;;;;;;4997157;28;20417;-85
2022/12/02 06:10:27;;;;;;;25.73;13.23;;;1.30;99.90;;;;;;4995715;28;20458;-83
2022/12/02 06:12:57;;;;;;;26.00;14.10;;;1.40;99.90;;;;;;4997828;28;20470;-84
2022/12/02 06:15:22;;;;;;;24.37;13.20;;;1.30;99.90;;;;;;4996924;28;20415;-82
2022/12/02 06:17:48;;;;;;;27.50;15.07;;;1.30;99.90;;;;;;4997360;28;20422;-82
2022/12/02 06:20:32;;;;;;;24.37;12.73;;;1.30;99.90;;;;;;4996655;28;20632;-84
2022/12/02 06:22:59;;;;;;;23.97;13.00;;;1.30;99.90;;;;;;4979770;28;20207;-93
2022/12/02 06:25:30;;;;;;;28.00;14.40;;;1.30;99.90;;;;;;4997868;28;20426;-91
2022/12/02 06:28:04;;;;;;;27.00;13.70;;;1.30;99.90;;;;;;4996940;28;20493;-93
2022/12/02 06:30:30;;;;;;;36.23;15.20;;;1.40;99.90;;;;;;4997896;28;20398;-92
2022/12/02 06:32:58;;;;;;;22.90;11.97;;;1.40;99.90;;;;;;5000190;28;20473;-82
2022/12/02 06:35:30;;;;;;;29.53;14.20;;;1.30;99.90;;;;;;5007536;28;20220;-82
2022/12/02 06:37:59;;;;;;;28.27;13.10;;;1.40;99.90;;;;;;5007656;28;20467;-82
2022/12/02 06:40:28;;;;;;;25.90;14.43;;;1.40;99.90;;;;;;5010610;28;20422;-82
2022/12/02 06:42:57;;;;;;;27.27;14.60;;;1.50;99.90;;;;;;4997992;28;20426;-81
2022/12/02 06:45:29;;;;;;;29.90;13.77;;;1.50;99.90;;;;;;4998106;28;20425;-83
2022/12/02 06:48:00;;;;;;;21.07;10.20;;;1.40;99.90;;;;;;4995641;28;20431;-82
2022/12/02 06:50:36;;;;;;;25.00;13.20;;;1.40;99.90;;;;;;4995822;28;20470;-83
2022/12/02 06:53:28;;;;;;;28.20;15.40;;;1.40;99.90;;;;;;4995737;28;20466;-82
2022/12/02 06:56:00;;;;;;;18.57;11.60;;;1.40;99.90;;;;;;4995888;28;20818;-82
2022/12/02 06:58:50;;;;;;;33.23;16.67;;;1.40;99.90;;;;;;4995654;28;20411;-82
2022/12/02 07:01:46;;;;;;;30.20;13.50;;;1.40;99.90;;;;;;4995409;28;20391;-84
2022/12/02 07:04:36;;;;;;;21.57;11.60;;;1.40;99.90;;;;;;4983603;28;20425;-82
2022/12/02 07:07:16;;;;;;;26.93;15.50;;;1.50;99.90;;;;;;4977883;28;20486;-84
2022/12/02 07:09:47;;;;;;;30.73;12.87;;;1.50;99.90;;;;;;4995511;28;20827;-81
2022/12/02 07:12:22;;;;;;;29.03;14.27;;;1.50;99.90;;;;;;4995148;28;20806;-81
2022/12/02 07:14:50;;;;;;;32.27;15.40;;;1.40;99.90;;;;;;4995444;28;20468;-82
2022/12/02 07:17:35;;;;;;;28.17;13.53;;;1.40;99.90;;;;;;4977397;28;20479;-82
2022/12/02 07:20:07;;;;;;;27.50;14.70;;;1.40;99.90;;;;;;4995200;28;20426;-83
2022/12/02 07:22:45;;;;;;;26.17;15.00;;;1.50;99.90;;;;;;4995302;28;20891;-82
2022/12/02 07:25:16;;;;;;;34.63;16.00;;;1.40;99.90;;;;;;4994924;28;20461;-82
2022/12/02 07:27:45;;;;;;;28.20;14.77;;;1.50;99.90;;;;;;4995039;28;20871;-82
2022/12/02 07:30:31;;;;;;;27.00;14.90;;;1.50;99.90;;;;;;4994792;28;20422;-82
2022/12/02 07:32:58;;;;;;;24.77;14.00;;;1.40;99.90;;;;;;4994434;28;20470;-82
2022/12/02 07:35:24;;;;;;;30.07;15.23;;;1.40;99.90;;;;;;4994571;28;20551;-85
2022/12/02 07:37:50;;;;;;;32.53;14.47;;;1.50;99.90;;;;;;4994627;28;20446;-82
2022/12/02 07:40:16;;;;;;;41.23;15.60;;;1.40;99.90;;;;;;4994556;28;20417;-82
2022/12/02 07:42:50;;;;;;;28.63;14.57;;;1.40;99.90;;;;;;4977432;28;20211;-83
2022/12/02 07:45:18;;;;;;;37.43;17.00;;;1.50;99.90;;;;;;5010101;28;20420;-84
2022/12/02 07:47:44;;;;;;;30.60;14.60;;;1.50;99.90;;;;;;5014431;28;20910;-85
2022/12/02 07:50:14;;;;;;;41.80;17.83;;;1.40;99.90;;;;;;5014688;28;20496;-82
2022/12/02 07:52:39;;;;;;;37.93;17.17;;;1.40;99.90;;;;;;5013743;28;20474;-81
2022/12/02 07:55:05;;;;;;;32.17;15.30;;;1.40;99.90;;;;;;5014020;28;20772;-86
2022/12/02 07:57:31;;;;;;;30.30;15.93;;;1.50;99.90;;;;;;5014015;28;20183;-82
2022/12/02 07:59:56;;;;;;;35.80;16.87;;;1.50;99.90;;;;;;5014029;28;20914;-88
2022/12/02 08:02:22;;;;;;;34.70;16.47;;;1.50;99.90;;;;;;5014662;28;20176;-82
2022/12/02 08:04:48;;;;;;;32.23;15.00;;;1.60;99.90;;;;;;5014406;28;20256;-87
2022/12/02 08:07:13;;;;;;;34.47;16.70;;;1.50;99.90;;;;;;5014828;28;20696;-91
2022/12/02 08:09:39;;;;;;;35.43;15.53;;;1.60;99.90;;;;;;5015534;28;20177;-88
2022/12/02 08:12:05;;;;;;;28.53;14.80;;;1.60;99.90;;;;;;5014806;28;20177;-87
2022/12/02 08:14:30;;;;;;;30.57;15.57;;;1.60;99.90;;;;;;5014903;28;20227;-83
2022/12/02 08:16:56;;;;;;;39.13;15.70;;;1.60;99.90;;;;;;5019447;28;20412;-86
2022/12/02 08:19:22;;;;;;;32.57;16.77;;;1.60;99.90;;;;;;5015660;28;20173;-88
2022/12/02 08:21:51;;;;;;;33.00;15.67;;;1.70;99.90;;;;;;4997445;28;20188;-88
2022/12/02 08:24:17;;;;;;;38.33;18.80;;;1.70;99.90;;;;;;5014574;28;20417;-88
2022/12/02 08:26:43;;;;;;;34.33;15.17;;;1.70;99.90;;;;;;5015247;28;20414;-91
2022/12/02 08:29:09;;;;;;;36.17;16.87;;;1.70;99.90;;;;;;5015806;28;20217;-91
2022/12/02 08:31:35;;;;;;;38.10;17.50;;;1.90;99.90;;;;;;5014628;28;20804;-85
2022/12/02 08:34:00;;;;;;;39.43;16.77;;;1.90;99.90;;;;;;5014235;28;20214;-85
2022/12/02 08:36:26;;;;;;;35.53;16.27;;;1.90;99.90;;;;;;5015114;28;20578;-84
2022/12/02 08:38:52;;;;;;;30.53;16.27;;;1.80;99.90;;;;;;5014420;28;20171;-89
2022/12/02 08:41:18;;;;;;;31.07;16.83;;;1.80;99.90;;;;;;5015004;28;20662;-89
2022/12/02 08:43:44;;;;;;;35.70;16.07;;;2.00;99.90;;;;;;5015005;28;20624;-88
2022/12/02 08:46:12;;;;;;;34.60;17.33;;;2.00;99.90;;;;;;5014388;28;20479;-89
2022/12/02 08:48:45;;;;;;;32.10;16.03;;;2.00;99.90;;;;;;4996915;28;20269;-89
2022/12/02 08:51:11;;;;;;;31.83;15.97;;;2.00;99.90;;;;;;5015191;28;20424;-90
2022/12/02 08:53:37;;;;;;;36.80;15.70;;;1.90;99.90;;;;;;5014813;28;20526;-89
2022/12/02 08:56:03;;;;;;;34.23;16.10;;;1.90;99.90;;;;;;4996513;28;20229;-83
2022/12/02 08:58:28;;;;;;;35.10;15.53;;;1.80;99.90;;;;;;5013416;28;20764;-83
2022/12/02 09:00:54;;;;;;;27.37;16.30;;;1.90;99.90;;;;;;5013533;28;20180;-91
2022/12/02 09:03:19;;;;;;;37.73;18.33;;;2.00;99.90;;;;;;5016580;28;20288;-83
2022/12/02 09:05:45;;;;;;;37.50;18.80;;;2.10;99.90;;;;;;5017895;28;20178;-84
2022/12/02 09:08:10;;;;;;;39.40;17.00;;;2.10;99.90;;;;;;5017610;28;20174;-82
2022/12/02 09:10:36;;;;;;;29.60;15.60;;;2.10;99.90;;;;;;5017937;28;20174;-83
2022/12/02 09:13:01;;;;;;;42.47;17.50;;;2.20;99.90;;;;;;5017954;28;20660;-89
2022/12/02 09:15:27;;;;;;;32.27;16.90;;;2.20;99.90;;;;;;5017821;28;20198;-84
2022/12/02 09:17:52;;;;;;;36.73;19.13;;;2.20;99.90;;;;;;5017354;28;20181;-84
2022/12/02 09:20:18;;;;;;;43.80;18.87;;;2.20;99.90;;;;;;5018066;28;20249;-84
2022/12/02 09:22:46;;;;;;;31.33;16.03;;;2.10;99.90;;;;;;5017559;28;20179;-83
2022/12/02 09:25:13;;;;;;;37.23;17.40;;;2.10;99.90;;;;;;5017428;28;20197;-83
2022/12/02 09:27:39;;;;;;;31.60;14.97;;;2.10;99.90;;;;;;5017000;28;20499;-85
2022/12/02 09:30:07;;;;;;;38.37;16.87;;;2.10;99.90;;;;;;5017148;28;20500;-83
2022/12/02 09:32:35;;;;;;;39.27;17.50;;;2.10;99.90;;;;;;5017024;28;20214;-83
2022/12/02 09:35:01;;;;;;;32.07;16.87;;;2.20;99.90;;;;;;5016752;28;20595;-85
2022/12/02 09:37:27;;;;;;;42.20;16.73;;;2.20;99.90;;;;;;4999059;28;20430;-81
2022/12/02 09:39:52;;;;;;;40.53;17.53;;;2.20;99.90;;;;;;5016734;28;20422;-84
2022/12/02 09:42:18;;;;;;;36.17;16.70;;;2.20;99.90;;;;;;5016896;28;20194;-82
2022/12/02 09:44:48;;;;;;;43.57;16.87;;;2.20;99.90;;;;;;5001579;28;20212;-83
2022/12/02 09:47:16;;;;;;;36.93;15.13;;;2.20;99.90;;;;;;5016739;28;20269;-83
2022/12/02 09:49:43;;;;;;;34.27;18.17;;;2.30;99.90;;;;;;5017785;28;20473;-83
2022/12/02 09:52:14;;;;;;;36.87;14.67;;;2.30;99.90;;;;;;5015123;28;20410;-83
2022/12/02 09:54:43;;;;;;;37.03;18.00;;;2.20;99.90;;;;;;5016318;28;20801;-83
2022/12/02 09:57:14;;;;;;;33.13;17.10;;;2.20;99.90;;;;;;5016974;28;20476;-83
2022/12/02 09:59:41;;;;;;;36.30;17.17;;;2.20;99.90;;;;;;5016444;28;20459;-83
2022/12/02 10:02:39;;;;;;;43.87;20.50;;;2.20;99.90;;;;;;5016096;28;20513;-83
2022/12/02 10:05:18;;;;;;;32.23;16.90;;;2.20;99.90;;;;;;4959192;28;20928;-86
2022/12/02 10:07:46;;;;;;;32.07;14.37;;;2.30;99.90;;;;;;4999584;28;20487;-83
2022/12/02 10:10:14;;;;;;;35.33;17.47;;;2.30;99.90;;;;;;4998596;28;21035;-83
2022/12/02 10:12:39;;;;;;;29.67;17.53;;;2.30;99.90;;;;;;5017526;28;20535;-83
2022/12/02 10:15:12;;;;;;;35.37;16.83;;;2.40;99.90;;;;;;4998181;28;20422;-83
2022/12/02 10:17:38;;;;;;;36.13;14.63;;;2.40;99.90;;;;;;5015949;28;20179;-83
2022/12/02 10:20:24;;;;;;;29.80;15.73;;;2.50;99.90;;;;;;4998749;28;20467;-82
2022/12/02 10:23:14;;;;;;;30.93;16.47;;;2.50;99.90;;;;;;4998499;28;20175;-83
2022/12/02 10:25:49;;;;;;;34.43;16.10;;;2.60;99.90;;;;;;5016178;28;20418;-82
2022/12/02 10:28:27;;;;;;;33.97;15.93;;;2.60;99.90;;;;;;4998509;28;20491;-83
2022/12/02 10:31:03;;;;;;;33.13;15.97;;;2.60;99.90;;;;;;5001140;28;20433;-82
2022/12/02 10:33:30;;;;;;;41.23;18.47;;;2.60;99.90;;;;;;5018020;28;20472;-82
2022/12/02 10:35:58;;;;;;;27.87;14.90;;;2.60;99.90;;;;;;5016268;28;20466;-82
2022/12/02 10:38:44;;;;;;;44.63;16.80;;;2.60;99.90;;;;;;5020666;28;20522;-82
2022/12/02 10:41:17;;;;;;;32.43;16.30;;;2.40;99.90;;;;;;5016583;28;20414;-82
2022/12/02 10:43:52;;;;;;;35.77;17.60;;;2.60;99.90;;;;;;5015511;28;20759;-82
2022/12/02 10:46:19;;;;;;;32.03;14.97;;;2.50;99.90;;;;;;4997412;28;20421;-83
2022/12/02 10:48:44;;;;;;;28.50;15.97;;;2.40;99.90;;;;;;4998578;28;20414;-82
2022/12/02 10:51:17;;;;;;;35.33;14.60;;;2.40;99.90;;;;;;5015372;28;20819;-83
2022/12/02 10:53:46;;;;;;;43.30;17.80;;;2.40;99.90;;;;;;4997604;28;20206;-82
2022/12/02 10:56:19;;;;;;;37.07;16.53;;;2.30;99.90;;;;;;5000043;28;20945;-84
2022/12/02 10:58:46;;;;;;;33.33;17.07;;;2.30;99.90;;;;;;5016739;28;20426;-83
2022/12/02 11:01:12;;;;;;;37.47;17.80;;;2.30;99.90;;;;;;5000391;28;20433;-83
2022/12/02 11:03:39;;;;;;;37.10;16.30;;;2.30;99.90;;;;;;5016957;28;20781;-82
2022/12/02 11:06:17;;;;;;;29.07;15.53;;;2.30;99.90;;;;;;5015054;28;20442;-82
2022/12/02 11:08:44;;;;;;;38.97;17.23;;;2.30;99.90;;;;;;5016266;28;20430;-85
2022/12/02 11:11:23;;;;;;;35.30;16.70;;;2.30;99.90;;;;;;5016950;28;20753;-82
2022/12/02 11:14:02;;;;;;;37.20;18.33;;;2.30;99.90;;;;;;5000802;28;20497;-82
2022/12/02 11:16:30;;;;;;;32.57;16.17;;;2.30;99.90;;;;;;5014172;28;20413;-82
2022/12/02 11:19:09;;;;;;;35.43;16.47;;;2.30;99.90;;;;;;5014620;28;20413;-82
2022/12/02 11:21:39;;;;;;;33.37;15.03;;;2.30;99.90;;;;;;5015874;28;20404;-82
2022/12/02 11:24:34;;;;;;;35.60;17.53;;;2.30;99.90;;;;;;5015143;28;20515;-82
2022/12/02 11:27:00;;;;;;;35.07;17.00;;;2.40;99.90;;;;;;5019623;23;20584;-82
2022/12/02 11:29:33;;;;;;;35.40;16.90;;;2.50;99.90;;;;;;4996139;28;20458;-82
2022/12/02 11:32:30;;;;;;;37.17;17.07;;;2.40;99.90;;;;;;4997029;28;20697;-82
2022/12/02 11:35:13;;;;;;;36.60;17.37;;;2.40;99.90;;;;;;5002185;28;20838;-82
2022/12/02 11:37:42;;;;;;;28.93;14.70;;;2.50;99.90;;;;;;4978091;28;20433;-82
2022/12/02 11:40:10;;;;;;;31.10;14.80;;;2.50;99.90;;;;;;4996871;28;20490;-82
2022/12/02 11:42:38;;;;;;;33.37;16.47;;;2.50;99.90;;;;;;4998200;28;20509;-82
2022/12/02 11:45:14;;;;;;;32.57;18.83;;;2.50;99.90;;;;;;4997770;28;20529;-82
2022/12/02 11:47:53;;;;;;;30.93;14.43;;;2.50;99.90;;;;;;4997070;28;20414;-82
2022/12/02 11:50:38;;;;;;;32.67;17.23;;;2.50;99.90;;;;;;5002049;28;20422;-83
2022/12/02 11:53:23;;;;;;;34.30;15.17;;;2.50;99.90;;;;;;4980001;28;20478;-82
2022/12/02 11:55:51;;;;;;;34.37;16.87;;;2.50;99.90;;;;;;4997331;28;20429;-82
2022/12/02 11:58:29;;;;;;;29.53;15.20;;;2.50;99.90;;;;;;4995041;28;20429;-83
2022/12/02 12:01:14;;;;;;;27.73;13.20;;;2.50;99.90;;;;;;4977331;28;20435;-82
2022/12/02 12:03:42;;;;;;;28.47;14.47;;;2.50;99.90;;;;;;4981061;28;20510;-84
2022/12/02 12:06:18;;;;;;;27.83;15.27;;;2.50;99.90;;;;;;4980618;28;20413;-82
2022/12/02 12:08:49;;;;;;;27.53;12.87;;;2.50;99.90;;;;;;4977140;28;20515;-82
2022/12/02 12:11:26;;;;;;;34.27;16.33;;;2.50;99.90;;;;;;4994176;28;20415;-82
2022/12/02 12:14:18;;;;;;;28.70;15.43;;;2.40;99.90;;;;;;4999467;28;20478;-82
2022/12/02 12:16:46;;;;;;;27.60;13.73;;;2.50;99.90;;;;;;4998578;28;20412;-82
2022/12/02 12:19:11;;;;;;;36.37;15.83;;;2.50;99.90;;;;;;4994976;28;20983;-82
2022/12/02 12:21:46;;;;;;;28.80;16.00;;;2.50;99.90;;;;;;5003625;28;20442;-82
2022/12/02 12:24:17;;;;;;;31.00;13.03;;;2.40;99.90;;;;;;4983816;28;20178;-81
2022/12/02 12:26:56;;;;;;;28.73;14.60;;;2.40;99.90;;;;;;5008908;23;20514;-81
2022/12/02 12:29:29;;;;;;;34.60;17.63;;;2.40;99.90;;;;;;4981793;28;20442;-81
2022/12/02 12:31:55;;;;;;;29.77;14.53;;;2.40;99.90;;;;;;5002876;28;20521;-81
2022/12/02 12:34:21;;;;;;;32.67;16.60;;;2.40;99.90;;;;;;4995257;28;20924;-81
2022/12/02 12:36:46;;;;;;;28.43;14.83;;;2.40;99.90;;;;;;4993956;28;20268;-81
2022/12/02 12:39:13;;;;;;;30.67;13.73;;;2.40;99.90;;;;;;4995932;28;20540;-81
2022/12/02 12:41:39;;;;;;;29.43;15.17;;;2.40;99.90;;;;;;4982773;28;20637;-81
2022/12/02 12:44:05;;;;;;;31.97;16.03;;;2.40;99.90;;;;;;5000637;28;20465;-91
2022/12/02 12:46:31;;;;;;;31.60;14.90;;;2.40;99.90;;;;;;5003936;23;20174;-80
2022/12/02 12:48:56;;;;;;;29.97;14.50;;;2.40;99.90;;;;;;5008247;28;20419;-81